Time;durP1;ratioP1;P1;durP2;ratioP2;P2;SDS_P1;SDS_P2;PMS_P1;PMS_P2;Temp;Humidity;BMP_temperature;BMP_pressure;BME280_temperature;BME280_humidity;BME280_pressure;Samples;Min_cycle;Max_cycle;Signal;HPM_P1;HPM_P2
2024/02/20 00:01:36;;;;;;;5.18;4.20;;;8.10;99.90;;;;;;5058299;28;20610;-65
2024/02/20 00:04:03;;;;;;;5.47;4.00;;;8.10;99.90;;;;;;5057381;28;20220;-66
2024/02/20 00:06:30;;;;;;;5.55;3.65;;;8.10;99.90;;;;;;5056238;28;20247;-66
2024/02/20 00:08:57;;;;;;;4.15;3.58;;;8.10;99.90;;;;;;5055580;28;20550;-65
2024/02/20 00:11:23;;;;;;;5.38;3.28;;;8.00;99.90;;;;;;5054855;28;20579;-65
2024/02/20 00:13:50;;;;;;;4.47;3.72;;;8.00;99.90;;;;;;5054490;28;20674;-66
2024/02/20 00:16:21;;;;;;;5.65;3.80;;;8.00;99.90;;;;;;5055268;28;20208;-66
2024/02/20 00:18:48;;;;;;;8.00;3.95;;;8.00;99.90;;;;;;5054912;28;20238;-65
2024/02/20 00:21:15;;;;;;;6.68;4.18;;;8.00;99.90;;;;;;5055809;28;20206;-66
2024/02/20 00:23:43;;;;;;;4.68;3.55;;;8.00;99.90;;;;;;5061942;28;20219;-66
2024/02/20 00:26:10;;;;;;;5.47;4.10;;;8.00;99.90;;;;;;5066671;28;20236;-65
2024/02/20 00:28:40;;;;;;;6.47;4.28;;;8.00;99.90;;;;;;5060381;28;20196;-67
2024/02/20 00:31:07;;;;;;;5.43;4.18;;;8.00;99.90;;;;;;5059516;28;20230;-66
2024/02/20 00:33:35;;;;;;;6.60;4.38;;;8.00;99.90;;;;;;5059313;28;20208;-67
2024/02/20 00:36:02;;;;;;;6.20;3.90;;;8.00;99.90;;;;;;5058613;28;20265;-66
2024/02/20 00:38:29;;;;;;;7.07;4.45;;;8.00;99.90;;;;;;5059027;28;20217;-66
2024/02/20 00:40:56;;;;;;;5.72;3.58;;;7.90;99.90;;;;;;5059693;28;20219;-66
2024/02/20 00:43:23;;;;;;;11.05;4.80;;;7.90;99.90;;;;;;5059676;28;20224;-67
2024/02/20 00:45:50;;;;;;;5.78;3.53;;;7.90;99.90;;;;;;5059430;28;20205;-66
2024/02/20 00:48:17;;;;;;;6.75;3.50;;;7.90;99.90;;;;;;5058461;28;20211;-66
2024/02/20 00:50:46;;;;;;;3.90;2.65;;;7.90;99.90;;;;;;5058202;28;20209;-66
2024/02/20 00:53:13;;;;;;;4.25;3.60;;;7.80;99.90;;;;;;5058709;28;20232;-66
2024/02/20 00:55:40;;;;;;;11.35;4.03;;;7.80;99.90;;;;;;5059375;28;20254;-66
2024/02/20 00:58:07;;;;;;;8.45;4.50;;;7.80;99.90;;;;;;5058080;28;20220;-65
2024/02/20 01:00:34;;;;;;;6.15;3.63;;;7.80;99.90;;;;;;5058358;28;20208;-66
2024/02/20 01:03:01;;;;;;;7.13;3.92;;;7.80;99.90;;;;;;5059599;28;20235;-66
2024/02/20 01:05:28;;;;;;;6.28;4.00;;;7.70;99.90;;;;;;5064774;28;20207;-67
2024/02/20 01:07:57;;;;;;;9.20;4.20;;;7.70;99.90;;;;;;5066772;28;20204;-66
2024/02/20 01:10:23;;;;;;;12.75;4.32;;;7.70;99.90;;;;;;5064842;28;20204;-66
2024/02/20 01:12:50;;;;;;;6.88;4.72;;;7.70;99.90;;;;;;5061293;28;20227;-66
2024/02/20 01:15:17;;;;;;;8.52;4.20;;;7.70;99.90;;;;;;5059170;28;20208;-66
2024/02/20 01:17:44;;;;;;;5.80;4.43;;;7.70;99.90;;;;;;5059722;28;20225;-66
2024/02/20 01:20:12;;;;;;;12.00;4.53;;;7.60;99.90;;;;;;5060090;28;20211;-67
2024/02/20 01:22:41;;;;;;;9.23;4.50;;;7.60;99.90;;;;;;5060057;28;20230;-66
2024/02/20 01:25:09;;;;;;;6.40;4.03;;;7.60;99.90;;;;;;5059068;28;20203;-67
2024/02/20 01:27:36;;;;;;;7.60;3.95;;;7.60;99.90;;;;;;5058795;28;20212;-66
2024/02/20 01:30:03;;;;;;;10.50;4.63;;;7.60;99.90;;;;;;5058035;28;20201;-66
2024/02/20 01:32:30;;;;;;;6.78;3.58;;;7.60;99.90;;;;;;5057549;28;20228;-66
2024/02/20 01:34:57;;;;;;;5.93;4.22;;;7.60;99.90;;;;;;5057840;28;20205;-66
2024/02/20 01:37:24;;;;;;;6.32;3.35;;;7.70;99.90;;;;;;5058587;28;20200;-64
2024/02/20 01:39:50;;;;;;;10.10;2.92;;;7.70;99.90;;;;;;5056963;28;20231;-65
2024/02/20 01:42:19;;;;;;;8.43;3.28;;;7.80;99.90;;;;;;5057723;28;20228;-66
2024/02/20 01:44:46;;;;;;;7.43;4.03;;;7.80;99.90;;;;;;5057838;28;20204;-65
2024/02/20 01:47:13;;;;;;;5.45;3.10;;;7.80;99.90;;;;;;5057117;28;20398;-65
2024/02/20 01:49:40;;;;;;;5.07;3.35;;;7.70;99.90;;;;;;5057201;28;20209;-66
2024/02/20 01:52:12;;;;;;;6.80;3.35;;;7.70;99.90;;;;;;5056894;28;20765;-66
2024/02/20 01:54:39;;;;;;;10.23;3.70;;;7.60;99.90;;;;;;5057594;28;20193;-66
2024/02/20 01:57:07;;;;;;;6.90;4.15;;;7.60;99.90;;;;;;5057468;28;20230;-66
2024/02/20 01:59:36;;;;;;;5.78;3.00;;;7.60;99.90;;;;;;5057241;28;20230;-67
2024/02/20 02:02:03;;;;;;;9.90;4.32;;;7.60;99.90;;;;;;5057175;28;20234;-66
2024/02/20 02:04:30;;;;;;;10.13;3.00;;;7.60;99.90;;;;;;5057330;28;20289;-66
2024/02/20 02:06:56;;;;;;;13.88;4.10;;;7.60;99.90;;;;;;5059082;28;20563;-65
2024/02/20 02:09:24;;;;;;;8.82;4.55;;;7.60;99.90;;;;;;5062381;28;20670;-66
2024/02/20 02:11:51;;;;;;;9.98;4.03;;;7.60;99.90;;;;;;5061268;28;20231;-66
2024/02/20 02:14:18;;;;;;;8.70;3.90;;;7.70;99.90;;;;;;5063741;28;20211;-65
2024/02/20 02:16:46;;;;;;;10.75;5.13;;;7.70;99.90;;;;;;5063072;28;20204;-67
2024/02/20 02:19:13;;;;;;;8.65;4.43;;;7.70;99.90;;;;;;5063054;28;20225;-65
2024/02/20 02:21:40;;;;;;;13.68;4.57;;;7.70;99.90;;;;;;5064866;28;20221;-66
2024/02/20 02:24:09;;;;;;;6.07;4.07;;;7.70;99.90;;;;;;5064458;28;20203;-66
2024/02/20 02:26:37;;;;;;;7.53;3.38;;;7.70;99.90;;;;;;5063056;28;20267;-65
2024/02/20 02:29:04;;;;;;;12.40;3.92;;;7.70;99.90;;;;;;5058261;28;20678;-67
2024/02/20 02:31:31;;;;;;;6.53;2.88;;;7.70;99.90;;;;;;5056696;28;20231;-66
2024/02/20 02:33:58;;;;;;;9.98;3.28;;;7.70;99.90;;;;;;5064340;28;20241;-66
2024/02/20 02:36:25;;;;;;;8.05;3.63;;;7.70;99.90;;;;;;5064149;28;20307;-67
2024/02/20 02:38:53;;;;;;;10.55;3.42;;;7.70;99.90;;;;;;5068107;28;20344;-66
2024/02/20 02:41:21;;;;;;;11.35;4.15;;;7.70;99.90;;;;;;5070815;28;20218;-65
2024/02/20 02:43:50;;;;;;;8.15;3.40;;;7.70;99.90;;;;;;5066738;28;20272;-66
2024/02/20 02:46:17;;;;;;;6.25;3.88;;;7.70;99.90;;;;;;5067239;28;20210;-66
2024/02/20 02:48:44;;;;;;;12.85;3.80;;;7.70;99.90;;;;;;5059782;28;20575;-66
2024/02/20 02:51:11;;;;;;;9.73;3.55;;;7.70;99.90;;;;;;5060377;28;20204;-66
2024/02/20 02:53:39;;;;;;;7.25;3.30;;;7.70;99.90;;;;;;5061979;28;20557;-66
2024/02/20 02:56:09;;;;;;;7.72;2.55;;;7.60;99.90;;;;;;5059274;28;20271;-65
2024/02/20 02:58:36;;;;;;;12.10;3.45;;;7.60;99.90;;;;;;5056342;28;20217;-65
2024/02/20 03:01:04;;;;;;;13.93;4.20;;;7.50;99.90;;;;;;5056058;28;20287;-65
2024/02/20 03:03:31;;;;;;;18.80;4.53;;;7.50;99.90;;;;;;5056472;28;20213;-66
2024/02/20 03:05:58;;;;;;;10.25;3.85;;;7.40;99.90;;;;;;5056157;28;20211;-65
2024/02/20 03:08:25;;;;;;;14.00;3.85;;;7.40;99.90;;;;;;5056066;28;20211;-64
2024/02/20 03:10:51;;;;;;;19.23;4.57;;;7.40;99.90;;;;;;5055898;28;20200;-66
2024/02/20 03:13:18;;;;;;;12.15;4.25;;;7.40;99.90;;;;;;5055450;28;20310;-66
2024/02/20 03:15:45;;;;;;;14.30;4.68;;;7.40;99.90;;;;;;5055658;28;20210;-65
2024/02/20 03:18:13;;;;;;;13.23;5.53;;;7.40;99.90;;;;;;5055309;28;20197;-66
2024/02/20 03:20:40;;;;;;;19.63;4.18;;;7.40;99.90;;;;;;5055381;28;20200;-66
2024/02/20 03:23:07;;;;;;;15.85;4.15;;;7.40;99.90;;;;;;5058479;28;20225;-65
2024/02/20 03:25:33;;;;;;;17.63;6.55;;;7.50;99.90;;;;;;5061025;28;20272;-65
2024/02/20 03:28:00;;;;;;;21.98;4.95;;;7.50;99.90;;;;;;5063194;28;20210;-65
2024/02/20 03:30:28;;;;;;;19.38;5.15;;;7.50;99.90;;;;;;5059938;28;20232;-66
2024/02/20 03:32:55;;;;;;;21.88;4.28;;;7.50;99.90;;;;;;5056440;28;20234;-66
2024/02/20 03:35:23;;;;;;;15.00;4.75;;;7.50;99.90;;;;;;5055325;28;20209;-66
2024/02/20 03:37:50;;;;;;;13.90;3.63;;;7.50;99.90;;;;;;5055814;28;20204;-65
2024/02/20 03:40:18;;;;;;;17.02;5.40;;;7.50;99.90;;;;;;5055659;28;20315;-66
2024/02/20 03:42:45;;;;;;;16.92;5.63;;;7.50;99.90;;;;;;5054282;28;20597;-66
2024/02/20 03:45:12;;;;;;;9.80;4.50;;;7.50;99.90;;;;;;5055100;28;20208;-66
2024/02/20 03:47:38;;;;;;;19.33;4.75;;;7.50;99.90;;;;;;5055391;28;20577;-65
2024/02/20 03:50:06;;;;;;;17.50;5.57;;;7.60;99.90;;;;;;5055892;28;20204;-66
2024/02/20 03:52:34;;;;;;;16.33;4.95;;;7.60;99.90;;;;;;5056834;28;20821;-66
2024/02/20 03:55:01;;;;;;;19.70;4.72;;;7.60;99.90;;;;;;5064478;28;20239;-66
2024/02/20 03:57:28;;;;;;;21.30;4.93;;;7.60;99.90;;;;;;5064818;28;20290;-66
2024/02/20 03:59:56;;;;;;;16.58;3.78;;;7.60;99.90;;;;;;5064519;28;20227;-65
2024/02/20 04:02:23;;;;;;;16.13;4.25;;;7.60;99.90;;;;;;5062937;28;20611;-66
2024/02/20 04:04:49;;;;;;;18.02;4.38;;;7.60;99.90;;;;;;5060382;28;20202;-66
2024/02/20 04:07:17;;;;;;;21.92;4.50;;;7.60;99.90;;;;;;5060087;28;20603;-65
2024/02/20 04:13:12;;;;;;;18.23;4.75;;;7.50;99.90;;;;;;5093011;28;20546;-65
2024/02/20 04:15:39;;;;;;;14.10;3.97;;;7.50;99.90;;;;;;5092597;28;20200;-65
2024/02/20 04:18:06;;;;;;;14.40;3.63;;;7.50;99.90;;;;;;5092323;28;20199;-65
2024/02/20 04:20:33;;;;;;;17.30;5.05;;;7.50;99.90;;;;;;5092210;28;20198;-65
2024/02/20 04:23:03;;;;;;;18.60;4.22;;;7.50;99.90;;;;;;5092173;28;20594;-65
2024/02/20 04:25:29;;;;;;;19.00;3.90;;;7.50;99.90;;;;;;5092180;28;20209;-66
2024/02/20 04:27:57;;;;;;;14.95;3.15;;;7.50;99.90;;;;;;5092848;28;20199;-66
2024/02/20 04:30:25;;;;;;;12.02;3.50;;;7.40;99.90;;;;;;5091827;28;20211;-65
2024/02/20 04:32:52;;;;;;;11.65;3.75;;;7.40;99.90;;;;;;5091774;28;20230;-66
2024/02/20 04:35:19;;;;;;;13.38;4.07;;;7.40;99.90;;;;;;5091804;28;20594;-64
2024/02/20 04:37:47;;;;;;;19.00;3.92;;;7.40;99.90;;;;;;5091846;28;20200;-65
2024/02/20 04:40:16;;;;;;;11.18;2.90;;;7.40;99.90;;;;;;5091405;28;20210;-66
2024/02/20 04:42:43;;;;;;;11.90;3.85;;;7.40;99.90;;;;;;5091154;28;20277;-65
2024/02/20 04:45:11;;;;;;;23.42;4.43;;;7.40;99.90;;;;;;5091524;28;20203;-66
2024/02/20 04:47:39;;;;;;;21.55;5.13;;;7.40;99.90;;;;;;5091452;28;20197;-66
2024/02/20 04:50:07;;;;;;;15.25;3.95;;;7.40;99.90;;;;;;5091628;28;20198;-66
2024/02/20 04:52:34;;;;;;;20.42;3.80;;;7.40;99.90;;;;;;5091400;28;20302;-66
2024/02/20 04:55:02;;;;;;;17.88;3.35;;;7.40;99.90;;;;;;5090508;28;20213;-66
2024/02/20 04:57:29;;;;;;;24.02;4.40;;;7.40;99.90;;;;;;5090887;28;20222;-65
2024/02/20 04:59:56;;;;;;;16.67;3.22;;;7.40;99.90;;;;;;5091019;28;20203;-65
2024/02/20 05:02:22;;;;;;;18.08;4.60;;;7.40;99.90;;;;;;5091223;28;20735;-65
2024/02/20 05:04:51;;;;;;;24.77;4.88;;;7.40;99.90;;;;;;5090904;28;20203;-66
2024/02/20 05:07:17;;;;;;;16.30;4.00;;;7.30;99.90;;;;;;5090961;28;20205;-66
2024/02/20 05:09:44;;;;;;;10.70;3.03;;;7.30;99.90;;;;;;5090525;28;20202;-65
2024/02/20 05:12:11;;;;;;;31.65;6.60;;;7.30;99.90;;;;;;5090082;28;20711;-67
2024/02/20 05:14:38;;;;;;;21.92;4.50;;;7.30;99.90;;;;;;5095334;28;20206;-66
2024/02/20 05:17:04;;;;;;;27.02;5.55;;;7.30;99.90;;;;;;5092429;28;20693;-66
2024/02/20 05:19:31;;;;;;;21.00;4.57;;;7.30;99.90;;;;;;5091109;28;20203;-66
2024/02/20 05:21:59;;;;;;;17.67;4.38;;;7.30;99.90;;;;;;5091723;28;20225;-66
2024/02/20 05:24:26;;;;;;;19.10;4.85;;;7.30;99.90;;;;;;5088265;28;20223;-66
2024/02/20 05:26:53;;;;;;;14.20;4.00;;;7.30;99.90;;;;;;5089829;28;20295;-66
2024/02/20 05:29:21;;;;;;;18.42;4.97;;;7.30;99.90;;;;;;5086186;28;20203;-66
2024/02/20 05:31:48;;;;;;;23.02;5.15;;;7.30;99.90;;;;;;5079926;28;20223;-67
2024/02/20 05:34:15;;;;;;;36.28;6.10;;;7.30;99.90;;;;;;5080483;28;20208;-66
2024/02/20 05:36:42;;;;;;;16.05;4.28;;;7.30;99.90;;;;;;5080459;28;20592;-65
2024/02/20 05:39:10;;;;;;;24.80;6.88;;;7.30;99.90;;;;;;5080604;28;20211;-66
2024/02/20 05:41:37;;;;;;;14.63;4.63;;;7.30;99.90;;;;;;5081539;28;20248;-65
2024/02/20 05:44:04;;;;;;;21.48;5.72;;;7.30;99.90;;;;;;5084149;28;20198;-66
2024/02/20 05:46:33;;;;;;;16.23;4.85;;;7.30;99.90;;;;;;5087695;28;20204;-65
2024/02/20 05:49:03;;;;;;;22.13;4.70;;;7.30;99.90;;;;;;5088780;28;20205;-65
2024/02/20 05:51:30;;;;;;;20.75;6.32;;;7.30;99.90;;;;;;5083223;28;20223;-65
2024/02/20 05:53:57;;;;;;;14.88;3.70;;;7.30;99.90;;;;;;5082238;28;20206;-64
2024/02/20 05:56:26;;;;;;;20.30;4.20;;;7.20;99.90;;;;;;5080159;28;20215;-65
2024/02/20 05:58:52;;;;;;;21.85;4.60;;;7.20;99.90;;;;;;5078195;28;20689;-65
2024/02/20 06:01:20;;;;;;;21.35;4.60;;;7.20;99.90;;;;;;5078374;28;20209;-66
2024/02/20 06:03:47;;;;;;;15.20;5.28;;;7.20;99.90;;;;;;5079138;28;20200;-66
2024/02/20 06:06:14;;;;;;;20.77;4.53;;;7.10;99.90;;;;;;5079180;28;20200;-65
2024/02/20 06:08:42;;;;;;;20.83;4.32;;;7.10;99.90;;;;;;5079235;28;20205;-66
2024/02/20 06:11:12;;;;;;;25.98;4.88;;;7.10;99.90;;;;;;5086361;28;20242;-65
2024/02/20 06:13:41;;;;;;;14.93;3.72;;;7.10;99.90;;;;;;5088331;28;20319;-65
2024/02/20 06:16:08;;;;;;;19.20;4.47;;;7.10;99.90;;;;;;5084166;28;20211;-66
2024/02/20 06:18:35;;;;;;;26.90;6.25;;;7.10;99.90;;;;;;5086082;28;20200;-66
2024/02/20 06:21:02;;;;;;;23.20;4.80;;;7.10;99.90;;;;;;5085816;28;20213;-67
2024/02/20 06:23:29;;;;;;;13.07;4.00;;;7.10;99.90;;;;;;5083648;28;20220;-65
2024/02/20 06:25:56;;;;;;;21.60;4.50;;;7.10;99.90;;;;;;5088969;28;20207;-66
2024/02/20 06:28:23;;;;;;;24.10;6.47;;;7.10;99.90;;;;;;5090672;28;20206;-67
2024/02/20 06:30:51;;;;;;;15.38;4.72;;;7.10;99.90;;;;;;5088401;28;20289;-66
2024/02/20 06:33:18;;;;;;;15.95;4.30;;;7.00;99.90;;;;;;5077031;28;20222;-65
2024/02/20 06:35:44;;;;;;;27.77;6.10;;;7.00;99.90;;;;;;5074778;28;20208;-66
2024/02/20 06:38:11;;;;;;;22.95;5.72;;;7.00;99.90;;;;;;5076203;28;20673;-65
2024/02/20 06:40:38;;;;;;;19.23;4.50;;;7.00;99.90;;;;;;5076423;28;20214;-66
2024/02/20 06:43:05;;;;;;;16.42;4.50;;;6.90;99.90;;;;;;5077120;28;20216;-66
2024/02/20 06:45:32;;;;;;;17.15;6.20;;;6.90;99.90;;;;;;5076904;28;20202;-65
2024/02/20 06:48:00;;;;;;;29.90;6.30;;;6.90;99.90;;;;;;5076820;28;20204;-67
2024/02/20 06:50:27;;;;;;;16.38;6.80;;;6.90;99.90;;;;;;5077704;28;20214;-64
2024/02/20 06:52:53;;;;;;;26.73;5.53;;;7.00;99.90;;;;;;5077056;28;20222;-64
2024/02/20 06:55:21;;;;;;;18.45;4.60;;;7.00;99.90;;;;;;5076432;28;20215;-65
2024/02/20 06:57:48;;;;;;;18.10;4.13;;;7.00;99.90;;;;;;5076069;28;20293;-66
2024/02/20 07:00:15;;;;;;;19.98;5.35;;;7.00;99.90;;;;;;5078227;28;20204;-66
2024/02/20 07:02:43;;;;;;;29.05;4.90;;;7.00;99.90;;;;;;5076845;28;20222;-65
2024/02/20 07:05:12;;;;;;;20.58;4.90;;;7.00;99.90;;;;;;5076635;28;20226;-65
2024/02/20 07:07:39;;;;;;;18.92;4.85;;;7.00;99.90;;;;;;5076686;28;20210;-66
2024/02/20 07:10:07;;;;;;;15.65;4.10;;;7.00;99.90;;;;;;5077206;28;20198;-65
2024/02/20 07:12:34;;;;;;;21.98;5.20;;;7.00;99.90;;;;;;5076105;28;20280;-64
2024/02/20 07:15:02;;;;;;;16.75;4.40;;;7.00;99.90;;;;;;5077561;28;20694;-66
2024/02/20 07:17:29;;;;;;;25.60;5.45;;;7.00;99.90;;;;;;5077666;28;20268;-67
2024/02/20 07:19:56;;;;;;;15.82;5.30;;;7.00;99.90;;;;;;5077205;28;20204;-65
2024/02/20 07:22:26;;;;;;;23.65;5.90;;;7.00;99.90;;;;;;5077493;28;20306;-65
2024/02/20 07:24:52;;;;;;;26.85;6.43;;;7.10;99.90;;;;;;5076920;28;20207;-65
2024/02/20 07:27:19;;;;;;;25.15;5.30;;;7.00;99.90;;;;;;5077445;28;20207;-65
2024/02/20 07:29:47;;;;;;;19.38;6.05;;;7.10;99.90;;;;;;5077282;28;20599;-66
2024/02/20 07:32:14;;;;;;;26.85;5.25;;;7.00;99.90;;;;;;5076946;28;20222;-66
2024/02/20 07:34:42;;;;;;;16.00;5.38;;;7.10;99.90;;;;;;5076418;28;20197;-66
2024/02/20 07:37:09;;;;;;;28.52;5.78;;;7.10;99.90;;;;;;5076820;28;20266;-66
2024/02/20 07:39:39;;;;;;;18.98;5.85;;;7.10;99.90;;;;;;5084680;28;20209;-65
2024/02/20 07:42:07;;;;;;;30.17;6.95;;;7.20;99.90;;;;;;5082532;28;20308;-66
2024/02/20 07:44:34;;;;;;;20.77;6.68;;;7.30;99.90;;;;;;5086472;28;20204;-66
2024/02/20 07:47:01;;;;;;;17.83;5.55;;;7.40;99.90;;;;;;5078439;28;20298;-66
2024/02/20 07:49:29;;;;;;;20.25;5.60;;;7.40;99.90;;;;;;5077427;28;20226;-65
2024/02/20 07:51:56;;;;;;;20.67;6.38;;;7.50;99.90;;;;;;5077334;28;20308;-65
2024/02/20 07:54:23;;;;;;;18.95;6.53;;;7.50;99.90;;;;;;5078899;28;20274;-66
2024/02/20 07:56:52;;;;;;;22.05;5.20;;;7.50;99.90;;;;;;5078394;28;20203;-66
2024/02/20 07:59:19;;;;;;;23.35;7.07;;;7.60;99.90;;;;;;5079244;28;20257;-65
2024/02/20 08:01:51;;;;;;;24.30;6.32;;;7.60;99.90;;;;;;5078209;28;20224;-65
2024/02/20 08:04:18;;;;;;;20.15;5.60;;;7.60;99.90;;;;;;5077049;28;20735;-64
2024/02/20 08:06:45;;;;;;;25.88;6.45;;;7.60;99.90;;;;;;5078124;28;20229;-65
2024/02/20 08:09:12;;;;;;;19.58;6.30;;;7.60;99.90;;;;;;5083300;28;20553;-66
2024/02/20 08:11:40;;;;;;;30.15;8.48;;;7.60;99.90;;;;;;5085738;28;20259;-66
2024/02/20 08:14:09;;;;;;;25.42;6.10;;;7.60;99.90;;;;;;5087433;28;20232;-66
2024/02/20 08:16:36;;;;;;;18.30;6.97;;;7.60;99.90;;;;;;5084281;28;20292;-66
2024/02/20 08:19:04;;;;;;;25.13;7.40;;;7.60;99.90;;;;;;5079676;28;20213;-66
2024/02/20 08:21:30;;;;;;;26.05;6.32;;;7.60;99.90;;;;;;5078694;28;20228;-66
2024/02/20 08:23:58;;;;;;;25.30;7.13;;;7.60;99.90;;;;;;5076826;28;20202;-65
2024/02/20 08:26:25;;;;;;;33.03;7.43;;;7.60;99.90;;;;;;5076931;28;20208;-66
2024/02/20 08:28:52;;;;;;;24.42;6.43;;;7.70;99.90;;;;;;5075804;28;20206;-66
2024/02/20 08:31:20;;;;;;;31.98;8.38;;;7.70;99.90;;;;;;5076080;28;20203;-65
2024/02/20 08:33:47;;;;;;;23.75;7.07;;;7.80;99.90;;;;;;5075427;28;20454;-64
2024/02/20 08:36:13;;;;;;;18.85;5.50;;;7.90;99.90;;;;;;5075671;28;20210;-65
2024/02/20 08:38:40;;;;;;;26.38;7.07;;;8.00;99.90;;;;;;5075949;28;20207;-67
2024/02/20 08:41:07;;;;;;;23.77;7.13;;;8.00;99.90;;;;;;5075801;28;20200;-65
2024/02/20 08:43:34;;;;;;;32.03;8.55;;;8.00;99.90;;;;;;5076459;28;20282;-65
2024/02/20 08:46:01;;;;;;;24.58;7.10;;;7.90;99.90;;;;;;5076302;28;20200;-65
2024/02/20 08:48:29;;;;;;;20.10;6.25;;;7.90;99.90;;;;;;5075531;28;20647;-66
2024/02/20 08:50:56;;;;;;;25.95;7.70;;;8.00;99.90;;;;;;5077147;28;20211;-64
2024/02/20 08:53:23;;;;;;;29.15;7.88;;;8.00;99.90;;;;;;5076569;28;20228;-64
2024/02/20 08:55:50;;;;;;;22.27;6.60;;;8.10;99.90;;;;;;5075271;28;20577;-66
2024/02/20 08:58:17;;;;;;;17.50;5.97;;;8.10;99.90;;;;;;5077263;28;20694;-65
2024/02/20 09:00:45;;;;;;;22.80;7.10;;;8.10;99.90;;;;;;5080327;28;20207;-64
2024/02/20 09:03:12;;;;;;;20.20;6.70;;;8.20;99.90;;;;;;5079706;28;20219;-66
2024/02/20 09:05:40;;;;;;;24.00;6.32;;;8.20;99.90;;;;;;5080041;28;20209;-65
2024/02/20 09:08:08;;;;;;;20.98;5.72;;;8.30;99.90;;;;;;5079828;28;20200;-66
2024/02/20 09:10:35;;;;;;;23.85;4.85;;;8.40;99.90;;;;;;5079874;28;20207;-64
2024/02/20 09:13:02;;;;;;;18.88;5.95;;;8.50;99.90;;;;;;5077956;28;20222;-66
2024/02/20 09:15:29;;;;;;;23.52;6.18;;;8.50;99.90;;;;;;5079038;28;20240;-64
2024/02/20 09:17:55;;;;;;;20.92;5.05;;;8.60;99.90;;;;;;5079795;28;20209;-66
2024/02/20 09:20:22;;;;;;;16.23;5.65;;;8.60;99.90;;;;;;5079193;28;20204;-65
2024/02/20 09:22:50;;;;;;;20.92;5.85;;;8.70;99.90;;;;;;5078808;28;20234;-63
2024/02/20 09:25:17;;;;;;;16.48;5.03;;;8.80;99.90;;;;;;5080572;28;20214;-65
2024/02/20 09:27:44;;;;;;;23.97;5.30;;;8.90;99.90;;;;;;5079209;28;20203;-66
2024/02/20 09:30:11;;;;;;;24.23;5.33;;;8.90;99.90;;;;;;5078677;28;20455;-66
2024/02/20 09:32:40;;;;;;;14.63;4.43;;;8.90;99.90;;;;;;5078375;28;20574;-66
2024/02/20 09:35:08;;;;;;;15.83;4.60;;;8.90;99.90;;;;;;5078653;28;20676;-65
2024/02/20 09:37:35;;;;;;;21.93;4.83;;;8.90;99.90;;;;;;5078339;28;20445;-64
2024/02/20 09:40:04;;;;;;;15.93;4.00;;;8.90;99.90;;;;;;5078168;28;20961;-65
2024/02/20 09:42:38;;;;;;;16.90;4.80;;;9.00;99.90;;;;;;5078416;28;20225;-65
2024/02/20 09:45:07;;;;;;;16.08;4.95;;;9.00;99.90;;;;;;5078999;28;20472;-66
2024/02/20 09:47:36;;;;;;;13.47;3.70;;;9.00;99.90;;;;;;5078353;28;20717;-65
2024/02/20 09:50:03;;;;;;;19.57;4.80;;;9.10;99.90;;;;;;5078076;28;20496;-64
2024/02/20 09:52:31;;;;;;;14.17;4.70;;;9.20;99.90;;;;;;5077930;28;20892;-65
2024/02/20 09:54:58;;;;;;;15.57;4.63;;;9.30;99.90;;;;;;5078995;28;20456;-66
2024/02/20 09:57:28;;;;;;;14.07;4.25;;;9.30;99.90;;;;;;5082859;28;20441;-66
2024/02/20 09:59:55;;;;;;;15.13;4.03;;;9.40;99.90;;;;;;5086242;28;20270;-66
2024/02/20 10:02:28;;;;;;;16.50;4.90;;;9.60;99.90;;;;;;5085152;28;20843;-65
2024/02/20 10:04:55;;;;;;;24.93;5.00;;;9.80;99.90;;;;;;5083021;28;20456;-66
2024/02/20 10:07:21;;;;;;;22.80;5.17;;;10.00;99.90;;;;;;5088408;28;20436;-67
2024/02/20 10:09:49;;;;;;;11.37;3.73;;;10.00;99.90;;;;;;5092045;28;20545;-65
2024/02/20 10:12:20;;;;;;;12.00;4.50;;;10.00;99.90;;;;;;5091656;28;20524;-66
2024/02/20 10:14:48;;;;;;;16.10;4.47;;;10.00;99.90;;;;;;5088299;28;20479;-65
2024/02/20 10:17:15;;;;;;;18.80;5.40;;;10.00;99.90;;;;;;5083065;28;20527;-66
2024/02/20 10:19:43;;;;;;;16.87;5.00;;;10.10;99.90;;;;;;5079798;28;20446;-65
2024/02/20 10:22:10;;;;;;;9.43;3.30;;;10.20;99.90;;;;;;5079615;28;20820;-66
2024/02/20 10:24:37;;;;;;;12.03;3.97;;;10.40;99.90;;;;;;5079282;28;20446;-66
2024/02/20 10:27:04;;;;;;;10.00;3.30;;;10.50;99.90;;;;;;5079059;28;20444;-66
2024/02/20 10:29:31;;;;;;;10.90;3.77;;;10.50;99.90;;;;;;5079229;28;20476;-65
2024/02/20 10:31:59;;;;;;;13.27;3.53;;;10.60;99.90;;;;;;5081622;28;20487;-65
2024/02/20 10:34:26;;;;;;;13.50;3.80;;;10.60;99.90;;;;;;5082649;28;20481;-65
2024/02/20 10:37:04;;;;;;;15.10;3.63;;;10.70;99.90;;;;;;5081518;28;20911;-66
2024/02/20 10:39:31;;;;;;;17.07;3.97;;;10.80;99.90;;;;;;5079244;28;20435;-64
2024/02/20 10:42:00;;;;;;;11.07;4.07;;;10.80;99.90;;;;;;5079458;28;20474;-65
2024/02/20 10:44:29;;;;;;;14.50;3.77;;;10.90;99.90;;;;;;5079463;28;20948;-66
2024/02/20 10:47:01;;;;;;;12.73;4.00;;;10.90;99.90;;;;;;5078474;28;20438;-66
2024/02/20 10:49:30;;;;;;;9.83;3.43;;;11.10;99.90;;;;;;5077802;28;20917;-66
2024/02/20 10:51:58;;;;;;;10.53;4.00;;;11.10;99.90;;;;;;5077537;28;20464;-65
2024/02/20 10:54:26;;;;;;;13.73;3.70;;;11.20;99.90;;;;;;5077435;28;20477;-67
2024/02/20 10:56:55;;;;;;;11.90;3.30;;;11.30;99.90;;;;;;5077288;28;20453;-66
2024/02/20 10:59:22;;;;;;;16.73;4.07;;;11.40;99.90;;;;;;5076736;28;20470;-65
2024/02/20 11:01:49;;;;;;;13.30;3.60;;;11.30;99.90;;;;;;5075847;28;20532;-66
2024/02/20 11:04:17;;;;;;;10.77;3.53;;;11.20;99.90;;;;;;5075762;28;20518;-66
2024/02/20 11:06:48;;;;;;;11.57;3.33;;;11.10;99.90;;;;;;5075555;28;20467;-66
2024/02/20 11:09:15;;;;;;;11.93;3.07;;;11.10;99.90;;;;;;5077103;28;20422;-66
2024/02/20 11:11:41;;;;;;;17.50;4.40;;;11.10;99.90;;;;;;5075508;28;20858;-66
2024/02/20 11:14:08;;;;;;;11.10;3.53;;;11.10;99.90;;;;;;5076346;28;20500;-65
2024/02/20 11:16:37;;;;;;;17.20;3.33;;;11.20;99.90;;;;;;5076650;28;20525;-66
2024/02/20 11:19:05;;;;;;;13.30;3.47;;;11.10;99.90;;;;;;5076178;28;20500;-65
2024/02/20 11:21:34;;;;;;;16.33;3.70;;;11.00;99.90;;;;;;5076565;28;20457;-66
2024/02/20 11:24:11;;;;;;;12.70;3.60;;;11.00;99.90;;;;;;5075886;28;20442;-66
2024/02/20 11:26:41;;;;;;;21.40;3.97;;;11.10;99.90;;;;;;5076289;28;20520;-66
2024/02/20 11:29:07;;;;;;;12.00;3.87;;;11.10;99.90;;;;;;5075340;28;20544;-66
2024/02/20 11:31:34;;;;;;;16.43;3.67;;;11.10;99.90;;;;;;5076634;28;20493;-67
2024/02/20 11:34:02;;;;;;;14.23;3.47;;;10.90;99.90;;;;;;5077046;28;20480;-66
2024/02/20 11:36:28;;;;;;;14.07;4.53;;;10.90;99.90;;;;;;5076255;28;20483;-65
2024/02/20 11:39:02;;;;;;;16.73;3.50;;;10.90;99.90;;;;;;5077049;28;20452;-66
2024/02/20 11:41:29;;;;;;;10.97;3.73;;;10.90;99.90;;;;;;5075900;28;20465;-65
2024/02/20 11:44:06;;;;;;;12.53;4.17;;;10.90;99.90;;;;;;5075239;28;20441;-66
2024/02/20 11:46:33;;;;;;;14.70;3.20;;;10.80;99.90;;;;;;5074684;28;20431;-67
2024/02/20 11:49:01;;;;;;;13.67;3.70;;;10.90;99.90;;;;;;5074640;28;20943;-65
2024/02/20 11:51:28;;;;;;;11.27;4.13;;;10.90;99.90;;;;;;5073938;28;20480;-66
2024/02/20 11:54:05;;;;;;;11.80;3.80;;;10.80;99.90;;;;;;5074720;28;20539;-66
2024/02/20 11:56:33;;;;;;;11.97;4.17;;;10.80;99.90;;;;;;5074289;28;20429;-65
2024/02/20 11:59:01;;;;;;;12.30;3.90;;;10.80;99.90;;;;;;5074225;28;20440;-65
2024/02/20 12:01:29;;;;;;;13.90;3.80;;;10.80;99.90;;;;;;5073598;28;20462;-65
2024/02/20 12:03:56;;;;;;;13.70;3.70;;;10.80;99.90;;;;;;5073656;28;20445;-65
2024/02/20 12:06:27;;;;;;;8.70;3.27;;;10.80;99.90;;;;;;5075107;28;20449;-65
2024/02/20 12:08:55;;;;;;;12.33;3.03;;;10.80;99.90;;;;;;5074732;28;20451;-65
2024/02/20 12:11:26;;;;;;;9.03;3.43;;;10.70;99.90;;;;;;5074370;28;20482;-65
2024/02/20 12:13:54;;;;;;;9.97;3.60;;;10.70;99.90;;;;;;5074450;28;20472;-66
2024/02/20 12:16:22;;;;;;;16.20;3.30;;;10.60;99.90;;;;;;5074645;28;20447;-68
2024/02/20 12:18:50;;;;;;;12.60;3.83;;;10.60;99.90;;;;;;5074215;28;20489;-66
2024/02/20 12:21:22;;;;;;;14.27;4.50;;;10.60;99.90;;;;;;5073728;28;20934;-65
2024/02/20 12:23:55;;;;;;;14.43;3.90;;;10.70;99.90;;;;;;5074441;28;20440;-66
2024/02/20 12:26:24;;;;;;;13.77;3.40;;;10.80;99.90;;;;;;5074664;28;20421;-65
2024/02/20 12:28:51;;;;;;;13.70;3.80;;;10.90;99.90;;;;;;5075280;28;20443;-67
2024/02/20 12:31:22;;;;;;;12.83;3.70;;;11.00;99.90;;;;;;5074243;28;20545;-66
2024/02/20 12:33:49;;;;;;;14.47;5.23;;;11.00;99.90;;;;;;5076152;28;20483;-66
2024/02/20 12:36:16;;;;;;;18.73;3.93;;;11.00;99.90;;;;;;5077551;28;20449;-66
2024/02/20 12:38:43;;;;;;;8.90;4.20;;;10.90;99.90;;;;;;5077881;28;20537;-65
2024/02/20 12:41:10;;;;;;;18.97;4.77;;;11.00;99.90;;;;;;5077959;28;20456;-65
2024/02/20 12:43:38;;;;;;;15.33;4.90;;;11.00;99.90;;;;;;5078182;28;20535;-65
2024/02/20 12:46:05;;;;;;;10.27;3.50;;;11.00;99.90;;;;;;5079414;28;20445;-64
2024/02/20 12:48:32;;;;;;;18.43;4.47;;;11.00;99.90;;;;;;5080871;28;20469;-66
2024/02/20 12:50:59;;;;;;;18.83;4.80;;;11.10;99.90;;;;;;5083272;28;20454;-65